sensor_id;sensor_type;location;lat;lon;timestamp;temperature;humidity
12015;DHT22;6066;48.138;16.402;2024-01-10T00:02:22;-7.80;99.90
12015;DHT22;6066;48.138;16.402;2024-01-10T00:04:50;-7.80;99.90
12015;DHT22;6066;48.138;16.402;2024-01-10T00:07:17;-7.80;99.90
12015;DHT22;6066;48.138;16.402;2024-01-10T00:09:43;-7.80;99.90
12015;DHT22;6066;48.138;16.402;2024-01-10T00:12:11;-7.80;99.90
12015;DHT22;6066;48.138;16.402;2024-01-10T00:14:38;-7.80;99.90
12015;DHT22;6066;48.138;16.402;2024-01-10T00:17:04;-7.80;99.90
12015;DHT22;6066;48.138;16.402;2024-01-10T00:19:31;-7.90;99.90
12015;DHT22;6066;48.138;16.402;2024-01-10T00:21:59;-7.90;99.90
12015;DHT22;6066;48.138;16.402;2024-01-10T00:24:26;-7.90;99.90
12015;DHT22;6066;48.138;16.402;2024-01-10T00:26:53;-7.90;99.90
12015;DHT22;6066;48.138;16.402;2024-01-10T00:29:20;-8.00;99.90
12015;DHT22;6066;48.138;16.402;2024-01-10T00:31:47;-8.00;99.90
12015;DHT22;6066;48.138;16.402;2024-01-10T00:34:14;-8.00;99.90
12015;DHT22;6066;48.138;16.402;2024-01-10T00:36:41;-8.10;99.90
12015;DHT22;6066;48.138;16.402;2024-01-10T00:39:09;-8.10;99.90
12015;DHT22;6066;48.138;16.402;2024-01-10T00:41:36;-8.20;99.90
12015;DHT22;6066;48.138;16.402;2024-01-10T00:44:03;-8.20;99.90
12015;DHT22;6066;48.138;16.402;2024-01-10T00:46:30;-8.20;99.90
12015;DHT22;6066;48.138;16.402;2024-01-10T00:48:57;-8.20;99.90
12015;DHT22;6066;48.138;16.402;2024-01-10T00:51:23;-8.20;99.90
12015;DHT22;6066;48.138;16.402;2024-01-10T00:53:50;-8.30;99.90
12015;DHT22;6066;48.138;16.402;2024-01-10T00:56:18;-8.30;99.90
12015;DHT22;6066;48.138;16.402;2024-01-10T00:58:45;-8.30;99.90
12015;DHT22;6066;48.138;16.402;2024-01-10T01:01:12;-8.30;99.90
12015;DHT22;6066;48.138;16.402;2024-01-10T01:03:39;-8.30;99.90
12015;DHT22;6066;48.138;16.402;2024-01-10T01:06:06;-8.30;99.90
12015;DHT22;6066;48.138;16.402;2024-01-10T01:08:32;-8.30;99.90
12015;DHT22;6066;48.138;16.402;2024-01-10T01:10:59;-8.30;99.90
12015;DHT22;6066;48.138;16.402;2024-01-10T01:13:27;-8.30;99.90
12015;DHT22;6066;48.138;16.402;2024-01-10T01:15:54;-8.30;99.90
12015;DHT22;6066;48.138;16.402;2024-01-10T01:18:21;-8.30;99.90
12015;DHT22;6066;48.138;16.402;2024-01-10T01:20:48;-8.30;99.90
12015;DHT22;6066;48.138;16.402;2024-01-10T01:23:15;-8.30;99.90
12015;DHT22;6066;48.138;16.402;2024-01-10T01:25:42;-8.30;99.90
12015;DHT22;6066;48.138;16.402;2024-01-10T01:28:09;-8.40;99.90
12015;DHT22;6066;48.138;16.402;2024-01-10T01:30:37;-8.40;99.90
12015;DHT22;6066;48.138;16.402;2024-01-10T01:33:04;-8.40;99.90
12015;DHT22;6066;48.138;16.402;2024-01-10T01:35:31;-8.40;99.90
12015;DHT22;6066;48.138;16.402;2024-01-10T01:37:58;-8.40;99.90
12015;DHT22;6066;48.138;16.402;2024-01-10T01:40:25;-8.40;99.90
12015;DHT22;6066;48.138;16.402;2024-01-10T01:42:51;-8.40;99.90
12015;DHT22;6066;48.138;16.402;2024-01-10T01:45:19;-8.50;99.90
12015;DHT22;6066;48.138;16.402;2024-01-10T01:47:47;-8.50;99.90
12015;DHT22;6066;48.138;16.402;2024-01-10T01:50:14;-8.50;99.90
12015;DHT22;6066;48.138;16.402;2024-01-10T01:52:40;-8.50;99.90
12015;DHT22;6066;48.138;16.402;2024-01-10T01:55:07;-8.50;99.90
12015;DHT22;6066;48.138;16.402;2024-01-10T01:57:35;-8.50;99.90
12015;DHT22;6066;48.138;16.402;2024-01-10T02:00:01;-8.60;99.90
12015;DHT22;6066;48.138;16.402;2024-01-10T02:02:30;-8.60;99.90
12015;DHT22;6066;48.138;16.402;2024-01-10T02:04:58;-8.60;99.90
12015;DHT22;6066;48.138;16.402;2024-01-10T02:07:25;-8.60;99.90
12015;DHT22;6066;48.138;16.402;2024-01-10T02:09:52;-8.60;99.90
12015;DHT22;6066;48.138;16.402;2024-01-10T02:12:19;-8.60;99.90
12015;DHT22;6066;48.138;16.402;2024-01-10T02:14:46;-8.60;99.90
12015;DHT22;6066;48.138;16.402;2024-01-10T02:17:13;-8.60;99.90
12015;DHT22;6066;48.138;16.402;2024-01-10T02:19:40;-8.60;99.90
12015;DHT22;6066;48.138;16.402;2024-01-10T02:22:08;-8.60;99.90
12015;DHT22;6066;48.138;16.402;2024-01-10T02:24:36;-8.70;99.90
12015;DHT22;6066;48.138;16.402;2024-01-10T02:27:04;-8.70;99.90
12015;DHT22;6066;48.138;16.402;2024-01-10T02:29:31;-8.70;99.90
12015;DHT22;6066;48.138;16.402;2024-01-10T02:31:58;-8.70;99.90
12015;DHT22;6066;48.138;16.402;2024-01-10T02:34:25;-8.70;99.90
12015;DHT22;6066;48.138;16.402;2024-01-10T02:36:51;-8.70;99.90
12015;DHT22;6066;48.138;16.402;2024-01-10T02:39:18;-8.70;99.90
12015;DHT22;6066;48.138;16.402;2024-01-10T02:41:45;-8.70;99.90
12015;DHT22;6066;48.138;16.402;2024-01-10T02:44:13;-8.70;99.90
12015;DHT22;6066;48.138;16.402;2024-01-10T02:46:41;-8.70;99.90
12015;DHT22;6066;48.138;16.402;2024-01-10T02:49:08;-8.70;99.90
12015;DHT22;6066;48.138;16.402;2024-01-10T02:51:35;-8.70;99.90
12015;DHT22;6066;48.138;16.402;2024-01-10T02:54:02;-8.70;99.90
12015;DHT22;6066;48.138;16.402;2024-01-10T02:56:28;-8.80;99.90
12015;DHT22;6066;48.138;16.402;2024-01-10T02:58:55;-8.80;99.90
12015;DHT22;6066;48.138;16.402;2024-01-10T03:01:23;-8.80;99.90
12015;DHT22;6066;48.138;16.402;2024-01-10T03:03:50;-8.70;99.90
12015;DHT22;6066;48.138;16.402;2024-01-10T03:06:17;-8.70;99.90
12015;DHT22;6066;48.138;16.402;2024-01-10T03:08:44;-8.60;99.90
12015;DHT22;6066;48.138;16.402;2024-01-10T03:11:10;-8.60;99.90
12015;DHT22;6066;48.138;16.402;2024-01-10T03:13:37;-8.70;99.90
12015;DHT22;6066;48.138;16.402;2024-01-10T03:16:04;-8.70;99.90
12015;DHT22;6066;48.138;16.402;2024-01-10T03:18:32;-8.70;99.90
12015;DHT22;6066;48.138;16.402;2024-01-10T03:20:59;-8.80;99.90
12015;DHT22;6066;48.138;16.402;2024-01-10T03:23:26;-8.80;99.90
12015;DHT22;6066;48.138;16.402;2024-01-10T03:25:53;-8.80;99.90
12015;DHT22;6066;48.138;16.402;2024-01-10T03:28:20;-8.80;99.90
12015;DHT22;6066;48.138;16.402;2024-01-10T03:30:47;-8.80;99.90
12015;DHT22;6066;48.138;16.402;2024-01-10T03:33:14;-8.90;99.90
12015;DHT22;6066;48.138;16.402;2024-01-10T03:35:43;-8.80;99.90
12015;DHT22;6066;48.138;16.402;2024-01-10T03:38:10;-8.80;99.90
12015;DHT22;6066;48.138;16.402;2024-01-10T03:40:37;-8.90;99.90
12015;DHT22;6066;48.138;16.402;2024-01-10T03:43:04;-8.90;99.90
12015;DHT22;6066;48.138;16.402;2024-01-10T03:45:30;-8.90;99.90
12015;DHT22;6066;48.138;16.402;2024-01-10T03:47:57;-8.80;99.90
12015;DHT22;6066;48.138;16.402;2024-01-10T03:50:24;-8.80;99.90
12015;DHT22;6066;48.138;16.402;2024-01-10T03:52:52;-8.90;99.90
12015;DHT22;6066;48.138;16.402;2024-01-10T03:55:19;-8.90;99.90
12015;DHT22;6066;48.138;16.402;2024-01-10T03:57:47;-8.90;99.90
12015;DHT22;6066;48.138;16.402;2024-01-10T04:00:16;-9.00;99.90
12015;DHT22;6066;48.138;16.402;2024-01-10T04:02:43;-9.00;99.90
12015;DHT22;6066;48.138;16.402;2024-01-10T04:05:10;-9.00;99.90
12015;DHT22;6066;48.138;16.402;2024-01-10T04:07:39;-9.00;99.90
12015;DHT22;6066;48.138;16.402;2024-01-10T04:10:08;-9.10;99.90
12015;DHT22;6066;48.138;16.402;2024-01-10T04:12:35;-9.10;99.90
12015;DHT22;6066;48.138;16.402;2024-01-10T04:15:02;-9.00;99.90
12015;DHT22;6066;48.138;16.402;2024-01-10T04:17:29;-9.00;99.90
12015;DHT22;6066;48.138;16.402;2024-01-10T04:19:56;-9.00;99.90
12015;DHT22;6066;48.138;16.402;2024-01-10T04:22:23;-9.00;99.90
12015;DHT22;6066;48.138;16.402;2024-01-10T04:24:50;-9.10;99.90
12015;DHT22;6066;48.138;16.402;2024-01-10T04:27:18;-9.10;99.90
12015;DHT22;6066;48.138;16.402;2024-01-10T04:29:45;-9.10;99.90
12015;DHT22;6066;48.138;16.402;2024-01-10T04:32:11;-9.10;99.90
12015;DHT22;6066;48.138;16.402;2024-01-10T04:34:38;-9.10;99.90
12015;DHT22;6066;48.138;16.402;2024-01-10T04:37:05;-9.20;99.90
12015;DHT22;6066;48.138;16.402;2024-01-10T04:39:33;-9.20;99.90
12015;DHT22;6066;48.138;16.402;2024-01-10T04:42:00;-9.20;99.90
12015;DHT22;6066;48.138;16.402;2024-01-10T04:44:28;-9.20;99.90
12015;DHT22;6066;48.138;16.402;2024-01-10T04:46:55;-9.10;99.90
12015;DHT22;6066;48.138;16.402;2024-01-10T04:49:22;-9.10;99.90
12015;DHT22;6066;48.138;16.402;2024-01-10T04:51:49;-9.10;99.90
12015;DHT22;6066;48.138;16.402;2024-01-10T04:54:16;-9.10;99.90
12015;DHT22;6066;48.138;16.402;2024-01-10T04:56:43;-9.20;99.90
12015;DHT22;6066;48.138;16.402;2024-01-10T04:59:10;-9.20;99.90
12015;DHT22;6066;48.138;16.402;2024-01-10T05:01:38;-9.20;99.90
12015;DHT22;6066;48.138;16.402;2024-01-10T05:04:05;-9.30;99.90
12015;DHT22;6066;48.138;16.402;2024-01-10T05:06:32;-9.20;99.90
12015;DHT22;6066;48.138;16.402;2024-01-10T05:08:59;-9.20;99.90
12015;DHT22;6066;48.138;16.402;2024-01-10T05:11:25;-9.20;99.90
12015;DHT22;6066;48.138;16.402;2024-01-10T05:13:52;-9.20;99.90
12015;DHT22;6066;48.138;16.402;2024-01-10T05:16:19;-9.20;99.90
12015;DHT22;6066;48.138;16.402;2024-01-10T05:18:48;-9.20;99.90
12015;DHT22;6066;48.138;16.402;2024-01-10T05:21:15;-9.20;99.90
12015;DHT22;6066;48.138;16.402;2024-01-10T05:23:42;-9.20;99.90
12015;DHT22;6066;48.138;16.402;2024-01-10T05:26:08;-9.20;99.90
12015;DHT22;6066;48.138;16.402;2024-01-10T05:28:35;-9.30;99.90
12015;DHT22;6066;48.138;16.402;2024-01-10T05:31:02;-9.30;99.90
12015;DHT22;6066;48.138;16.402;2024-01-10T05:33:29;-9.30;99.90
12015;DHT22;6066;48.138;16.402;2024-01-10T05:35:57;-9.30;99.90
12015;DHT22;6066;48.138;16.402;2024-01-10T05:38:24;-9.30;99.90
12015;DHT22;6066;48.138;16.402;2024-01-10T05:40:51;-9.30;99.90
12015;DHT22;6066;48.138;16.402;2024-01-10T05:43:18;-9.30;99.90
12015;DHT22;6066;48.138;16.402;2024-01-10T05:45:45;-9.30;99.90
12015;DHT22;6066;48.138;16.402;2024-01-10T05:48:11;-9.30;99.90
12015;DHT22;6066;48.138;16.402;2024-01-10T05:50:38;-9.30;99.90
12015;DHT22;6066;48.138;16.402;2024-01-10T05:53:07;-9.30;99.90
12015;DHT22;6066;48.138;16.402;2024-01-10T05:55:34;-9.30;99.90
12015;DHT22;6066;48.138;16.402;2024-01-10T05:58:02;-9.30;99.90
12015;DHT22;6066;48.138;16.402;2024-01-10T06:00:29;-9.30;99.90
12015;DHT22;6066;48.138;16.402;2024-01-10T06:02:55;-9.30;99.90
12015;DHT22;6066;48.138;16.402;2024-01-10T06:05:22;-9.30;99.90
12015;DHT22;6066;48.138;16.402;2024-01-10T06:07:49;-9.30;99.90
12015;DHT22;6066;48.138;16.402;2024-01-10T06:10:17;-9.30;99.90
12015;DHT22;6066;48.138;16.402;2024-01-10T06:12:44;-9.30;99.90
12015;DHT22;6066;48.138;16.402;2024-01-10T06:15:11;-9.30;99.90
12015;DHT22;6066;48.138;16.402;2024-01-10T06:17:38;-9.30;99.90
12015;DHT22;6066;48.138;16.402;2024-01-10T06:20:05;-9.30;99.90
12015;DHT22;6066;48.138;16.402;2024-01-10T06:22:32;-9.30;99.90
12015;DHT22;6066;48.138;16.402;2024-01-10T06:24:59;-9.30;99.90
12015;DHT22;6066;48.138;16.402;2024-01-10T06:27:27;-9.30;99.90
12015;DHT22;6066;48.138;16.402;2024-01-10T06:29:55;-9.30;99.90
12015;DHT22;6066;48.138;16.402;2024-01-10T06:32:22;-9.30;99.90
12015;DHT22;6066;48.138;16.402;2024-01-10T06:34:49;-9.30;99.90
12015;DHT22;6066;48.138;16.402;2024-01-10T06:37:15;-9.30;99.90
12015;DHT22;6066;48.138;16.402;2024-01-10T06:39:42;-9.20;99.90
12015;DHT22;6066;48.138;16.402;2024-01-10T06:42:10;-9.20;99.90
12015;DHT22;6066;48.138;16.402;2024-01-10T06:44:38;-9.20;99.90
12015;DHT22;6066;48.138;16.402;2024-01-10T06:47:05;-9.30;99.90
12015;DHT22;6066;48.138;16.402;2024-01-10T06:49:32;-9.30;99.90
12015;DHT22;6066;48.138;16.402;2024-01-10T06:52:01;-9.20;99.90
12015;DHT22;6066;48.138;16.402;2024-01-10T06:54:28;-9.10;99.90
12015;DHT22;6066;48.138;16.402;2024-01-10T06:56:54;-9.00;99.90
12015;DHT22;6066;48.138;16.402;2024-01-10T06:59:22;-8.90;99.90
12015;DHT22;6066;48.138;16.402;2024-01-10T07:01:52;-8.80;99.90
12015;DHT22;6066;48.138;16.402;2024-01-10T07:04:21;-8.80;99.90
12015;DHT22;6066;48.138;16.402;2024-01-10T07:06:49;-8.70;99.90
12015;DHT22;6066;48.138;16.402;2024-01-10T07:09:16;-8.60;99.90
12015;DHT22;6066;48.138;16.402;2024-01-10T07:11:45;-8.50;99.90
12015;DHT22;6066;48.138;16.402;2024-01-10T07:14:12;-8.40;99.90
12015;DHT22;6066;48.138;16.402;2024-01-10T07:16:39;-8.20;99.90
12015;DHT22;6066;48.138;16.402;2024-01-10T07:19:09;-8.10;99.90
12015;DHT22;6066;48.138;16.402;2024-01-10T07:21:39;-8.00;99.90
12015;DHT22;6066;48.138;16.402;2024-01-10T07:24:06;-8.00;99.90
12015;DHT22;6066;48.138;16.402;2024-01-10T07:26:33;-7.90;99.90
12015;DHT22;6066;48.138;16.402;2024-01-10T07:29:01;-7.90;99.90
12015;DHT22;6066;48.138;16.402;2024-01-10T07:31:28;-7.90;99.90
12015;DHT22;6066;48.138;16.402;2024-01-10T07:33:55;-7.90;99.90
12015;DHT22;6066;48.138;16.402;2024-01-10T07:36:23;-8.00;99.90
12015;DHT22;6066;48.138;16.402;2024-01-10T07:38:51;-8.00;99.90
12015;DHT22;6066;48.138;16.402;2024-01-10T07:41:18;-8.10;99.90
12015;DHT22;6066;48.138;16.402;2024-01-10T07:43:45;-8.10;99.90
12015;DHT22;6066;48.138;16.402;2024-01-10T07:46:12;-8.20;99.90
12015;DHT22;6066;48.138;16.402;2024-01-10T07:48:39;-8.20;99.90
12015;DHT22;6066;48.138;16.402;2024-01-10T07:51:06;-8.10;99.90
12015;DHT22;6066;48.138;16.402;2024-01-10T07:53:34;-8.10;99.90
12015;DHT22;6066;48.138;16.402;2024-01-10T07:56:01;-8.00;99.90
12015;DHT22;6066;48.138;16.402;2024-01-10T07:58:28;-8.00;99.90
12015;DHT22;6066;48.138;16.402;2024-01-10T08:00:56;-7.90;99.90
12015;DHT22;6066;48.138;16.402;2024-01-10T08:03:23;-7.80;99.90
12015;DHT22;6066;48.138;16.402;2024-01-10T08:05:49;-7.80;99.90
12015;DHT22;6066;48.138;16.402;2024-01-10T08:08:16;-7.70;99.90
12015;DHT22;6066;48.138;16.402;2024-01-10T08:10:44;-7.70;99.90
12015;DHT22;6066;48.138;16.402;2024-01-10T08:13:10;-7.60;99.90
12015;DHT22;6066;48.138;16.402;2024-01-10T08:15:37;-7.60;99.90
12015;DHT22;6066;48.138;16.402;2024-01-10T08:18:04;-7.50;99.90
12015;DHT22;6066;48.138;16.402;2024-01-10T08:20:32;-7.40;99.90
12015;DHT22;6066;48.138;16.402;2024-01-10T08:22:59;-7.30;99.90
12015;DHT22;6066;48.138;16.402;2024-01-10T08:25:26;-7.20;99.90
12015;DHT22;6066;48.138;16.402;2024-01-10T08:27:54;-7.10;99.90
12015;DHT22;6066;48.138;16.402;2024-01-10T08:30:22;-7.10;99.90
12015;DHT22;6066;48.138;16.402;2024-01-10T08:32:49;-7.00;99.90
12015;DHT22;6066;48.138;16.402;2024-01-10T08:35:17;-6.90;99.90
12015;DHT22;6066;48.138;16.402;2024-01-10T08:37:44;-6.80;99.90
12015;DHT22;6066;48.138;16.402;2024-01-10T08:40:12;-6.80;99.90
12015;DHT22;6066;48.138;16.402;2024-01-10T08:42:40;-6.80;99.90
12015;DHT22;6066;48.138;16.402;2024-01-10T08:45:11;-6.70;99.90
12015;DHT22;6066;48.138;16.402;2024-01-10T08:47:40;-6.60;99.90
12015;DHT22;6066;48.138;16.402;2024-01-10T08:50:07;-6.60;99.90
12015;DHT22;6066;48.138;16.402;2024-01-10T08:52:35;-6.50;99.90
12015;DHT22;6066;48.138;16.402;2024-01-10T08:55:03;-6.40;99.90
12015;DHT22;6066;48.138;16.402;2024-01-10T08:57:30;-6.40;99.90
12015;DHT22;6066;48.138;16.402;2024-01-10T08:59:57;-6.30;99.90
12015;DHT22;6066;48.138;16.402;2024-01-10T09:02:25;-6.20;99.90
12015;DHT22;6066;48.138;16.402;2024-01-10T09:04:53;-6.10;99.90
12015;DHT22;6066;48.138;16.402;2024-01-10T09:07:19;-6.00;99.90
12015;DHT22;6066;48.138;16.402;2024-01-10T09:09:46;-5.90;99.90
12015;DHT22;6066;48.138;16.402;2024-01-10T09:12:13;-5.90;99.90
12015;DHT22;6066;48.138;16.402;2024-01-10T09:14:40;-5.80;99.90
12015;DHT22;6066;48.138;16.402;2024-01-10T09:17:07;-5.70;99.90
12015;DHT22;6066;48.138;16.402;2024-01-10T09:19:35;-5.60;99.90
12015;DHT22;6066;48.138;16.402;2024-01-10T09:22:02;-5.60;99.90
12015;DHT22;6066;48.138;16.402;2024-01-10T09:24:29;-5.60;99.90
12015;DHT22;6066;48.138;16.402;2024-01-10T09:26:56;-5.50;99.90
12015;DHT22;6066;48.138;16.402;2024-01-10T09:29:23;-5.40;99.90
12015;DHT22;6066;48.138;16.402;2024-01-10T09:31:50;-5.30;99.90
12015;DHT22;6066;48.138;16.402;2024-01-10T09:34:16;-5.30;99.90
12015;DHT22;6066;48.138;16.402;2024-01-10T09:36:45;-5.20;99.90
12015;DHT22;6066;48.138;16.402;2024-01-10T09:39:12;-5.20;99.90
12015;DHT22;6066;48.138;16.402;2024-01-10T09:41:43;-5.20;99.90
12015;DHT22;6066;48.138;16.402;2024-01-10T09:44:12;-5.10;99.90
12015;DHT22;6066;48.138;16.402;2024-01-10T09:46:39;-5.00;99.90
12015;DHT22;6066;48.138;16.402;2024-01-10T09:49:07;-4.90;99.90
12015;DHT22;6066;48.138;16.402;2024-01-10T09:51:34;-4.80;99.90
12015;DHT22;6066;48.138;16.402;2024-01-10T09:54:03;-4.70;99.90
12015;DHT22;6066;48.138;16.402;2024-01-10T09:56:30;-4.60;99.90
12015;DHT22;6066;48.138;16.402;2024-01-10T09:58:58;-4.50;99.90
12015;DHT22;6066;48.138;16.402;2024-01-10T10:01:25;-4.40;99.90
12015;DHT22;6066;48.138;16.402;2024-01-10T10:03:52;-4.30;99.90
12015;DHT22;6066;48.138;16.402;2024-01-10T10:06:19;-4.30;99.90
12015;DHT22;6066;48.138;16.402;2024-01-10T10:08:46;-4.20;99.90
12015;DHT22;6066;48.138;16.402;2024-01-10T10:11:14;-4.10;99.90
12015;DHT22;6066;48.138;16.402;2024-01-10T10:13:41;-4.00;99.90
12015;DHT22;6066;48.138;16.402;2024-01-10T10:16:08;-3.80;99.90
12015;DHT22;6066;48.138;16.402;2024-01-10T10:18:38;-3.70;99.90
12015;DHT22;6066;48.138;16.402;2024-01-10T10:21:06;-3.60;99.90
12015;DHT22;6066;48.138;16.402;2024-01-10T10:23:33;-3.50;99.90
12015;DHT22;6066;48.138;16.402;2024-01-10T10:26:02;-3.40;99.90
12015;DHT22;6066;48.138;16.402;2024-01-10T10:28:37;-3.30;99.90
12015;DHT22;6066;48.138;16.402;2024-01-10T10:31:04;-3.20;99.90
12015;DHT22;6066;48.138;16.402;2024-01-10T10:33:32;-3.10;99.90
12015;DHT22;6066;48.138;16.402;2024-01-10T10:35:59;-3.00;99.90
12015;DHT22;6066;48.138;16.402;2024-01-10T10:38:26;-2.90;99.90
12015;DHT22;6066;48.138;16.402;2024-01-10T10:40:53;-2.80;99.90
12015;DHT22;6066;48.138;16.402;2024-01-10T10:43:21;-2.70;99.90
12015;DHT22;6066;48.138;16.402;2024-01-10T10:45:49;-2.60;99.90
12015;DHT22;6066;48.138;16.402;2024-01-10T10:48:17;-2.60;99.90
12015;DHT22;6066;48.138;16.402;2024-01-10T10:50:47;-2.40;99.90
12015;DHT22;6066;48.138;16.402;2024-01-10T10:53:16;-2.30;99.90
12015;DHT22;6066;48.138;16.402;2024-01-10T10:55:44;-2.20;99.90
12015;DHT22;6066;48.138;16.402;2024-01-10T10:58:13;-2.10;99.90
12015;DHT22;6066;48.138;16.402;2024-01-10T11:00:41;-1.90;99.90
12015;DHT22;6066;48.138;16.402;2024-01-10T11:03:10;-1.70;99.90
12015;DHT22;6066;48.138;16.402;2024-01-10T11:05:37;-1.50;99.90
12015;DHT22;6066;48.138;16.402;2024-01-10T11:08:07;-1.40;99.90
12015;DHT22;6066;48.138;16.402;2024-01-10T11:10:35;-1.20;99.90
12015;DHT22;6066;48.138;16.402;2024-01-10T11:13:13;-1.10;99.90
12015;DHT22;6066;48.138;16.402;2024-01-10T11:15:54;-1.00;99.90
12015;DHT22;6066;48.138;16.402;2024-01-10T11:18:33;-0.90;99.90
12015;DHT22;6066;48.138;16.402;2024-01-10T11:21:06;-0.80;99.90
12015;DHT22;6066;48.138;16.402;2024-01-10T11:23:39;-0.70;99.90
12015;DHT22;6066;48.138;16.402;2024-01-10T11:26:07;-0.60;99.90
12015;DHT22;6066;48.138;16.402;2024-01-10T11:28:35;-0.50;99.90
12015;DHT22;6066;48.138;16.402;2024-01-10T11:31:02;-0.50;99.90
12015;DHT22;6066;48.138;16.402;2024-01-10T11:33:32;-0.40;99.90
12015;DHT22;6066;48.138;16.402;2024-01-10T11:36:14;-0.40;99.90
12015;DHT22;6066;48.138;16.402;2024-01-10T11:38:41;-0.40;99.90
12015;DHT22;6066;48.138;16.402;2024-01-10T11:41:09;-0.30;99.90
12015;DHT22;6066;48.138;16.402;2024-01-10T11:43:36;-0.30;99.90
12015;DHT22;6066;48.138;16.402;2024-01-10T11:46:03;-0.30;99.90
12015;DHT22;6066;48.138;16.402;2024-01-10T11:48:32;-0.20;99.90
12015;DHT22;6066;48.138;16.402;2024-01-10T11:51:00;-0.20;99.90
12015;DHT22;6066;48.138;16.402;2024-01-10T11:53:44;-0.20;99.90
12015;DHT22;6066;48.138;16.402;2024-01-10T11:56:13;-0.10;99.90
12015;DHT22;6066;48.138;16.402;2024-01-10T11:58:54;-0.10;99.90
12015;DHT22;6066;48.138;16.402;2024-01-10T12:01:21;0.00;99.90
12015;DHT22;6066;48.138;16.402;2024-01-10T12:03:51;0.00;99.90
12015;DHT22;6066;48.138;16.402;2024-01-10T12:06:19;0.00;99.90
12015;DHT22;6066;48.138;16.402;2024-01-10T12:08:47;0.00;99.90
12015;DHT22;6066;48.138;16.402;2024-01-10T12:11:14;0.10;99.90
12015;DHT22;6066;48.138;16.402;2024-01-10T12:13:41;0.10;99.90
12015;DHT22;6066;48.138;16.402;2024-01-10T12:16:08;0.10;99.90
12015;DHT22;6066;48.138;16.402;2024-01-10T12:18:34;0.20;99.90
12015;DHT22;6066;48.138;16.402;2024-01-10T12:21:02;0.20;99.90
12015;DHT22;6066;48.138;16.402;2024-01-10T12:23:30;0.20;99.90
12015;DHT22;6066;48.138;16.402;2024-01-10T12:25:57;0.30;99.90
12015;DHT22;6066;48.138;16.402;2024-01-10T12:28:24;0.30;99.90
12015;DHT22;6066;48.138;16.402;2024-01-10T12:30:51;0.20;99.90
12015;DHT22;6066;48.138;16.402;2024-01-10T12:33:21;0.20;99.90
12015;DHT22;6066;48.138;16.402;2024-01-10T12:36:02;0.20;99.90
12015;DHT22;6066;48.138;16.402;2024-01-10T12:38:30;0.20;99.90
12015;DHT22;6066;48.138;16.402;2024-01-10T12:40:57;0.20;99.90
12015;DHT22;6066;48.138;16.402;2024-01-10T12:43:26;0.20;99.90
12015;DHT22;6066;48.138;16.402;2024-01-10T12:46:02;0.20;99.90
12015;DHT22;6066;48.138;16.402;2024-01-10T12:48:29;0.20;99.90
12015;DHT22;6066;48.138;16.402;2024-01-10T12:50:56;0.10;99.90
12015;DHT22;6066;48.138;16.402;2024-01-10T12:53:27;0.10;99.90
12015;DHT22;6066;48.138;16.402;2024-01-10T12:55:54;0.10;99.90
12015;DHT22;6066;48.138;16.402;2024-01-10T12:58:21;0.10;99.90
12015;DHT22;6066;48.138;16.402;2024-01-10T13:00:48;0.10;99.90
12015;DHT22;6066;48.138;16.402;2024-01-10T13:03:15;0.10;99.90
12015;DHT22;6066;48.138;16.402;2024-01-10T13:05:42;0.10;99.90
12015;DHT22;6066;48.138;16.402;2024-01-10T13:08:09;0.10;99.90
12015;DHT22;6066;48.138;16.402;2024-01-10T13:10:38;0.10;99.90
12015;DHT22;6066;48.138;16.402;2024-01-10T13:13:05;0.10;99.90
12015;DHT22;6066;48.138;16.402;2024-01-10T13:15:32;0.10;99.90
12015;DHT22;6066;48.138;16.402;2024-01-10T13:17:59;0.10;99.90
12015;DHT22;6066;48.138;16.402;2024-01-10T13:20:25;0.10;99.90
12015;DHT22;6066;48.138;16.402;2024-01-10T13:22:53;0.20;99.90
12015;DHT22;6066;48.138;16.402;2024-01-10T13:25:19;0.20;99.90
12015;DHT22;6066;48.138;16.402;2024-01-10T13:27:50;0.20;99.90
12015;DHT22;6066;48.138;16.402;2024-01-10T13:30:17;0.20;99.90
12015;DHT22;6066;48.138;16.402;2024-01-10T13:32:44;0.20;99.90
12015;DHT22;6066;48.138;16.402;2024-01-10T13:35:12;0.20;99.90
12015;DHT22;6066;48.138;16.402;2024-01-10T13:37:39;0.20;99.90
12015;DHT22;6066;48.138;16.402;2024-01-10T13:40:06;0.30;99.90
12015;DHT22;6066;48.138;16.402;2024-01-10T13:42:34;0.30;99.90
12015;DHT22;6066;48.138;16.402;2024-01-10T13:45:04;0.20;99.90
12015;DHT22;6066;48.138;16.402;2024-01-10T13:47:31;0.30;99.90
12015;DHT22;6066;48.138;16.402;2024-01-10T13:49:59;0.30;99.90
12015;DHT22;6066;48.138;16.402;2024-01-10T13:52:26;0.30;99.90
12015;DHT22;6066;48.138;16.402;2024-01-10T13:54:53;0.20;99.90
12015;DHT22;6066;48.138;16.402;2024-01-10T13:57:19;0.20;99.90
12015;DHT22;6066;48.138;16.402;2024-01-10T13:59:46;0.30;99.90
12015;DHT22;6066;48.138;16.402;2024-01-10T14:02:15;0.30;99.90
12015;DHT22;6066;48.138;16.402;2024-01-10T14:04:43;0.30;99.90
12015;DHT22;6066;48.138;16.402;2024-01-10T14:07:11;0.20;99.90
12015;DHT22;6066;48.138;16.402;2024-01-10T14:09:38;0.20;99.90
12015;DHT22;6066;48.138;16.402;2024-01-10T14:12:05;0.20;99.90
12015;DHT22;6066;48.138;16.402;2024-01-10T14:14:32;0.20;99.90
12015;DHT22;6066;48.138;16.402;2024-01-10T14:16:59;0.10;99.90
12015;DHT22;6066;48.138;16.402;2024-01-10T14:19:27;0.20;99.90
12015;DHT22;6066;48.138;16.402;2024-01-10T14:21:53;0.10;99.90
12015;DHT22;6066;48.138;16.402;2024-01-10T14:24:22;0.10;99.90
12015;DHT22;6066;48.138;16.402;2024-01-10T14:26:50;0.00;99.90
12015;DHT22;6066;48.138;16.402;2024-01-10T14:29:16;0.00;99.90
12015;DHT22;6066;48.138;16.402;2024-01-10T14:31:43;0.00;99.90
12015;DHT22;6066;48.138;16.402;2024-01-10T14:34:10;-0.10;99.90
12015;DHT22;6066;48.138;16.402;2024-01-10T14:36:39;-0.20;99.90
12015;DHT22;6066;48.138;16.402;2024-01-10T14:39:05;-0.20;99.90
12015;DHT22;6066;48.138;16.402;2024-01-10T14:41:33;-0.20;99.90
12015;DHT22;6066;48.138;16.402;2024-01-10T14:44:00;-0.20;99.90
12015;DHT22;6066;48.138;16.402;2024-01-10T14:46:29;-0.20;99.90
12015;DHT22;6066;48.138;16.402;2024-01-10T14:48:55;-0.30;99.90
12015;DHT22;6066;48.138;16.402;2024-01-10T14:51:22;-0.30;99.90
12015;DHT22;6066;48.138;16.402;2024-01-10T14:53:50;-0.40;99.90
12015;DHT22;6066;48.138;16.402;2024-01-10T14:56:18;-0.40;99.90
12015;DHT22;6066;48.138;16.402;2024-01-10T14:58:44;-0.30;99.90
12015;DHT22;6066;48.138;16.402;2024-01-10T15:01:11;-0.40;99.90
12015;DHT22;6066;48.138;16.402;2024-01-10T15:03:38;-0.40;99.90
12015;DHT22;6066;48.138;16.402;2024-01-10T15:06:05;-0.40;99.90
12015;DHT22;6066;48.138;16.402;2024-01-10T15:08:32;-0.50;99.90
12015;DHT22;6066;48.138;16.402;2024-01-10T15:11:02;-0.50;99.90
12015;DHT22;6066;48.138;16.402;2024-01-10T15:13:29;-0.60;99.90
12015;DHT22;6066;48.138;16.402;2024-01-10T15:15:55;-0.60;99.90
12015;DHT22;6066;48.138;16.402;2024-01-10T15:18:22;-0.70;99.90
12015;DHT22;6066;48.138;16.402;2024-01-10T15:20:49;-0.80;99.90
12015;DHT22;6066;48.138;16.402;2024-01-10T15:23:18;-0.90;99.90
12015;DHT22;6066;48.138;16.402;2024-01-10T15:25:45;-1.00;99.90
12015;DHT22;6066;48.138;16.402;2024-01-10T15:28:16;-1.00;99.90
12015;DHT22;6066;48.138;16.402;2024-01-10T15:30:43;-1.10;99.90
12015;DHT22;6066;48.138;16.402;2024-01-10T15:33:10;-1.10;99.90
12015;DHT22;6066;48.138;16.402;2024-01-10T15:35:37;-1.20;99.90